首页
METAR-TAF:

METAR-TAF

机场 :

Tanagra, 希腊

纬度: 38-19N, 经度: 023-32E, 海拔: 148米

METAR: 丢失

时间: 02:06 (00:06 UTC)

预报

该预报发布于1小时和6分钟前的23:00 UTC
预报有效从13日的 00点(UTC)到 13日的 09点(UTC)
风速3节,风向多变
能见度10公里或以上
散云层高于2500英尺
多云层高于7000英尺
几率 40% :
短暂存在
从 13日的 03点(UTC)到 13日的 09点(UTC)
能見度: 6000
几率 40% :
短暂存在
从 13日的 06点(UTC)到 13日的 09点(UTC)
能見度: 3000
少量云层高于1600英尺, 积雨云.
多云层高于2000英尺
阴天层高于7000英尺
雷暴, 雨

TAF: LGTG 122300Z 1300/1309 VRB03KT 9999 SCT025 BKN070 PROB40 TEMPO 1303/1309 6000 RA PROB40 TEMPO 1306/1309 3000 TSRA FEW016CB BKN020 OVC070

超过4000个机场的气象观测和天气预报(METAR&TAF报告)。

可查询的气象台以黄色和红色小点在地图上表示。

将鼠标移到小点上方,可查看气象台名称。

然后点击查看天气观测和预报。

如需切换地图:点击带黑十字的绿色按钮放大地图;点击带横线的绿色按钮缩小地图;或者点击绿色箭头查看邻近地区的地图。


METAR-TAF: